Terminal Aerodrome Forecast
Issued by NWS

Home | Current Version | Previous Version | Text Only | Print | Product List | Glossary On
Versions: 1 2 3 4 5 6 7 8 9 10 11 12
711
FTUS41 KBTV 291739
TAFMSS
TAF
KMSS 291739Z 2918/3018 21007KT P6SM FEW150
     FM301000 22009KT P6SM BKN060
     FM301300 24013G24KT P6SM SCT200=

USA.gov is the U.S. government's official web portal to all federal, state and local government web resources and services.